Labrea, Brazil
Current Conditions -  °F | °C
As of 8:00 AM on Tuesday 27 Jan 2015 (Local Time) from SBPV Reporting Station
Drizzle Drizzle  
Wind Chill: 73°   Ceiling: 1300
Heat Index: 73°   Visibility: 2.5mi
Dew Point: 72°   Wind: 0mph
Humidity: 94%   Direction: NA
Pressure: 29.91"   Gusts: NA
Location:  7.26°S, 64.81°W
Report Text: SBPV 271200Z 00000KT 4000 -DZ SCT003 BKN013 OVC070 23/22 Q1013
Loading
Personal Weather Stations






























Interactive Weather Map New forecast layout! Learn more

10-Day Weather Forecast

Advertisements
Track Severe Weather on mobile